createdAt,value
2018-12-07T00:01:06.078Z,2.10
2018-12-07T00:03:34.482Z,2.30
2018-12-07T00:06:02.779Z,2.10
2018-12-07T00:08:31.015Z,2.50
2018-12-07T00:10:59.331Z,2.30
2018-12-07T00:13:27.474Z,2.20
2018-12-07T00:15:55.566Z,2.20
2018-12-07T00:18:23.723Z,2.47
2018-12-07T00:20:51.810Z,2.45
2018-12-07T00:23:19.946Z,2.45
2018-12-07T00:25:48.086Z,2.60
2018-12-07T00:28:16.192Z,2.60
2018-12-07T00:30:44.292Z,2.40
2018-12-07T00:33:12.583Z,2.30
2018-12-07T00:35:41.608Z,2.50
2018-12-07T00:38:09.834Z,2.60
2018-12-07T00:40:38.032Z,2.83
2018-12-07T00:43:06.284Z,2.80
2018-12-07T00:45:34.516Z,2.60
2018-12-07T00:48:02.727Z,2.50
2018-12-07T00:50:30.769Z,2.70
2018-12-07T00:52:58.770Z,2.60
2018-12-07T00:55:38.707Z,2.75
2018-12-07T00:58:07.130Z,2.62
2018-12-07T01:00:35.139Z,2.35
2018-12-07T01:03:04.039Z,2.45
2018-12-07T01:05:32.102Z,2.58
2018-12-07T01:08:00.314Z,2.08
2018-12-07T01:10:28.478Z,2.20
2018-12-07T01:12:56.645Z,2.20
2018-12-07T01:15:25.629Z,2.20
2018-12-07T01:17:53.721Z,2.10
2018-12-07T01:20:21.762Z,2.10
2018-12-07T01:22:49.854Z,2.15
2018-12-07T01:25:18.708Z,1.90
2018-12-07T01:27:46.967Z,1.98
2018-12-07T01:30:15.110Z,2.40
2018-12-07T01:32:43.358Z,2.25
2018-12-07T01:35:11.550Z,2.00
2018-12-07T01:37:39.724Z,1.70
2018-12-07T01:40:07.887Z,1.80
2018-12-07T01:42:35.951Z,2.00
2018-12-07T01:45:04.972Z,1.90
2018-12-07T01:47:36.426Z,1.70
2018-12-07T01:50:04.910Z,2.05
2018-12-07T01:52:33.123Z,2.25
2018-12-07T01:55:01.235Z,2.00
2018-12-07T01:57:29.270Z,2.00
2018-12-07T01:59:57.408Z,2.10
2018-12-07T02:02:25.533Z,1.85
2018-12-07T02:04:53.810Z,2.00
2018-12-07T02:07:29.346Z,2.20
2018-12-07T02:09:58.154Z,1.82
2018-12-07T02:12:26.312Z,1.90
2018-12-07T02:14:54.504Z,1.90
2018-12-07T02:17:22.663Z,1.90
2018-12-07T02:19:50.765Z,2.10
2018-12-07T02:22:18.821Z,1.60
2018-12-07T02:24:46.892Z,1.70
2018-12-07T02:27:14.946Z,1.90
2018-12-07T02:29:43.025Z,1.50
2018-12-07T02:32:11.075Z,1.87
2018-12-07T02:34:39.473Z,1.50
2018-12-07T02:37:07.543Z,1.60
2018-12-07T02:39:35.694Z,1.52
2018-12-07T02:42:03.999Z,1.40
2018-12-07T02:44:32.188Z,1.50
2018-12-07T02:47:00.242Z,1.50
2018-12-07T02:49:28.395Z,1.62
2018-12-07T02:51:56.504Z,1.40
2018-12-07T02:54:25.353Z,1.30
2018-12-07T02:56:53.474Z,1.40
2018-12-07T02:59:21.586Z,1.32
2018-12-07T03:01:49.786Z,1.20
2018-12-07T03:04:17.934Z,1.30
2018-12-07T03:06:46.247Z,1.30
2018-12-07T03:09:14.382Z,1.30
2018-12-07T03:11:42.621Z,1.00
2018-12-07T03:14:10.646Z,1.32
2018-12-07T03:16:38.840Z,1.10
2018-12-07T03:19:07.116Z,1.20
2018-12-07T03:21:35.217Z,1.02
2018-12-07T03:24:03.351Z,1.22
2018-12-07T03:26:31.444Z,1.20
2018-12-07T03:28:59.598Z,1.00
2018-12-07T03:31:27.952Z,1.10
2018-12-07T03:33:56.337Z,1.15
2018-12-07T03:36:41.369Z,1.10
2018-12-07T03:39:09.807Z,1.00
2018-12-07T03:41:37.942Z,1.10
2018-12-07T03:44:17.126Z,1.00
2018-12-07T03:46:45.162Z,0.90
2018-12-07T03:49:14.080Z,0.80
2018-12-07T03:51:43.193Z,1.00
2018-12-07T03:54:11.535Z,1.00
2018-12-07T03:56:39.590Z,1.30
2018-12-07T03:59:07.991Z,1.00
2018-12-07T04:01:36.023Z,0.90
2018-12-07T04:04:04.227Z,1.00
2018-12-07T04:06:32.402Z,1.00
2018-12-07T04:09:00.801Z,1.10
2018-12-07T04:11:28.963Z,0.93
2018-12-07T04:13:57.228Z,1.27
2018-12-07T04:16:26.335Z,1.00
2018-12-07T04:18:54.616Z,1.20
2018-12-07T04:21:22.782Z,1.00
2018-12-07T04:23:50.911Z,0.93
2018-12-07T04:26:19.333Z,0.90
2018-12-07T04:28:48.594Z,1.12
2018-12-07T04:31:16.794Z,0.90
2018-12-07T04:33:45.312Z,1.00
2018-12-07T04:36:13.571Z,0.80
2018-12-07T04:38:41.603Z,0.98
2018-12-07T04:41:10.038Z,1.00
2018-12-07T04:43:38.148Z,0.80
2018-12-07T04:46:06.673Z,0.80
2018-12-07T04:48:35.215Z,0.90
2018-12-07T04:51:03.738Z,0.90
2018-12-07T04:53:32.591Z,0.80
2018-12-07T04:56:03.183Z,1.00
2018-12-07T04:58:31.815Z,0.90
2018-12-07T05:00:59.892Z,0.90
2018-12-07T05:03:28.708Z,0.95
2018-12-07T05:05:56.979Z,0.90
2018-12-07T05:08:25.126Z,0.90
2018-12-07T05:10:53.178Z,0.80
2018-12-07T05:13:21.371Z,0.90
2018-12-07T05:15:49.534Z,0.70
2018-12-07T05:18:17.727Z,0.90
2018-12-07T05:20:45.990Z,0.80
2018-12-07T05:23:14.656Z,0.80
2018-12-07T05:25:43.138Z,0.80
2018-12-07T05:28:11.534Z,0.90
2018-12-07T05:30:40.101Z,0.90
2018-12-07T05:33:08.327Z,1.10
2018-12-07T05:35:36.786Z,0.70
2018-12-07T05:38:04.967Z,0.70
2018-12-07T05:40:33.204Z,0.80
2018-12-07T05:43:01.512Z,0.80
2018-12-07T05:45:30.312Z,0.80
2018-12-07T05:47:58.522Z,0.90
2018-12-07T05:50:26.584Z,0.78
2018-12-07T05:52:54.780Z,0.80
2018-12-07T05:55:22.947Z,0.90
2018-12-07T05:57:51.288Z,0.80
2018-12-07T06:00:19.410Z,0.70
2018-12-07T06:02:48.176Z,0.80
2018-12-07T06:05:16.283Z,0.70
2018-12-07T06:07:44.393Z,0.80
2018-12-07T06:10:12.807Z,0.70
2018-12-07T06:12:41.066Z,0.70
2018-12-07T06:15:09.356Z,0.90
2018-12-07T06:17:37.397Z,0.80
2018-12-07T06:20:05.812Z,0.70
2018-12-07T06:22:34.052Z,1.80
2018-12-07T06:25:02.271Z,1.10
2018-12-07T06:27:30.409Z,1.40
2018-12-07T06:29:58.611Z,0.80
2018-12-07T06:32:26.659Z,0.80
2018-12-07T06:34:54.838Z,0.90
2018-12-07T06:37:22.998Z,1.10
2018-12-07T06:39:52.317Z,1.00
2018-12-07T06:42:20.922Z,1.00
2018-12-07T06:44:49.184Z,1.00
2018-12-07T06:47:17.514Z,1.10
2018-12-07T06:49:45.836Z,0.98
2018-12-07T06:52:14.219Z,0.98
2018-12-07T06:54:42.457Z,1.35
2018-12-07T06:57:11.166Z,1.10
2018-12-07T06:59:39.418Z,1.22
2018-12-07T07:02:07.820Z,1.50
2018-12-07T07:04:35.971Z,0.80
2018-12-07T07:07:05.274Z,0.72
2018-12-07T07:09:34.230Z,1.15
2018-12-07T07:12:02.392Z,0.83
2018-12-07T07:14:30.522Z,0.98
2018-12-07T07:16:58.619Z,1.10
2018-12-07T07:19:26.647Z,1.40
2018-12-07T07:21:55.243Z,1.00
2018-12-07T07:24:23.408Z,1.60
2018-12-07T07:26:51.615Z,1.20
2018-12-07T07:29:19.657Z,1.20
2018-12-07T07:31:48.031Z,1.22
2018-12-07T07:34:16.119Z,1.05
2018-12-07T07:36:44.162Z,1.00
2018-12-07T07:39:12.399Z,0.90
2018-12-07T07:41:40.439Z,0.95
2018-12-07T07:44:09.011Z,0.90
2018-12-07T07:46:37.171Z,1.00
2018-12-07T07:49:05.374Z,1.02
2018-12-07T07:51:33.505Z,1.00
2018-12-07T07:54:01.617Z,0.90
2018-12-07T07:56:29.751Z,1.00
2018-12-07T07:58:57.991Z,0.90
2018-12-07T08:01:26.106Z,0.90
2018-12-07T08:03:54.311Z,0.87
2018-12-07T08:06:22.348Z,1.00
2018-12-07T08:08:50.567Z,0.90
2018-12-07T08:11:18.620Z,0.82
2018-12-07T08:13:46.690Z,0.80
2018-12-07T08:16:14.964Z,1.00
2018-12-07T08:18:43.151Z,1.00
2018-12-07T08:21:11.733Z,0.80
2018-12-07T08:23:39.996Z,1.10
2018-12-07T08:26:08.149Z,1.02
2018-12-07T08:28:36.342Z,0.80
2018-12-07T08:31:04.817Z,1.00
2018-12-07T08:33:33.278Z,0.78
2018-12-07T08:36:01.575Z,1.00
2018-12-07T08:38:39.809Z,0.80
2018-12-07T08:41:08.480Z,0.90
2018-12-07T08:43:36.514Z,0.80
2018-12-07T08:46:04.824Z,0.93
2018-12-07T08:48:32.887Z,1.05
2018-12-07T08:51:01.058Z,1.00
2018-12-07T08:53:29.133Z,0.90
2018-12-07T08:55:57.303Z,0.80
2018-12-07T08:58:25.543Z,1.00
2018-12-07T09:00:53.671Z,1.05
2018-12-07T09:03:21.714Z,1.10
2018-12-07T09:05:49.931Z,1.00
2018-12-07T09:08:18.045Z,1.00
2018-12-07T09:10:46.277Z,0.88
2018-12-07T09:13:14.327Z,0.90
2018-12-07T09:15:42.459Z,0.90
2018-12-07T09:18:10.662Z,0.80
2018-12-07T09:20:38.730Z,0.80
2018-12-07T09:23:06.952Z,0.72
2018-12-07T09:25:35.159Z,0.88
2018-12-07T09:28:03.259Z,0.80
2018-12-07T09:30:31.294Z,0.70
2018-12-07T09:32:59.430Z,0.70
2018-12-07T09:35:27.641Z,0.70
2018-12-07T09:37:55.968Z,0.70
2018-12-07T09:40:23.987Z,0.70
2018-12-07T09:42:52.307Z,0.90
2018-12-07T09:45:20.926Z,0.80
2018-12-07T09:47:49.048Z,0.90
2018-12-07T09:50:17.311Z,0.80
2018-12-07T09:52:45.594Z,1.10
2018-12-07T09:55:13.652Z,0.90
2018-12-07T09:57:42.943Z,1.23
2018-12-07T10:00:11.162Z,1.00
2018-12-07T10:02:40.008Z,0.80
2018-12-07T10:05:08.411Z,0.80
2018-12-07T10:07:36.459Z,0.90
2018-12-07T10:10:04.901Z,0.90
2018-12-07T10:12:32.915Z,1.02
2018-12-07T10:15:01.012Z,1.00
2018-12-07T10:17:30.034Z,0.98
2018-12-07T10:19:58.449Z,1.10
2018-12-07T10:22:26.647Z,0.90
2018-12-07T10:24:56.761Z,1.00
2018-12-07T10:27:24.814Z,0.90
2018-12-07T10:29:53.658Z,0.98
2018-12-07T10:32:21.795Z,0.80
2018-12-07T10:34:49.878Z,0.75
2018-12-07T10:37:18.210Z,1.00
2018-12-07T10:39:46.337Z,0.80
2018-12-07T10:42:14.381Z,0.80
2018-12-07T10:44:42.593Z,0.90
2018-12-07T10:47:11.445Z,0.90
2018-12-07T10:49:39.632Z,0.93
2018-12-07T10:52:07.933Z,0.90
2018-12-07T10:54:39.664Z,0.80
2018-12-07T10:57:07.944Z,0.90
2018-12-07T10:59:36.288Z,0.90
2018-12-07T11:02:10.007Z,1.00
2018-12-07T11:04:44.147Z,0.90
2018-12-07T11:08:17.519Z,1.15
2018-12-07T11:10:51.082Z,1.10
2018-12-07T11:13:24.802Z,1.20
2018-12-07T11:15:58.563Z,1.15
2018-12-07T11:18:32.744Z,1.10
2018-12-07T11:21:06.445Z,1.10
2018-12-07T11:23:40.151Z,1.00
2018-12-07T11:28:16.458Z,0.90
2018-12-07T11:30:50.150Z,0.80
2018-12-07T11:33:25.079Z,0.82
2018-12-07T11:35:53.568Z,0.70
2018-12-07T11:38:21.807Z,0.80
2018-12-07T11:40:50.347Z,0.80
2018-12-07T11:43:18.488Z,0.70
2018-12-07T11:45:46.520Z,0.80
2018-12-07T11:48:15.659Z,0.70
2018-12-07T11:50:43.921Z,0.70
2018-12-07T11:53:20.297Z,0.70
2018-12-07T11:55:51.582Z,0.60
2018-12-07T11:58:23.406Z,0.60
2018-12-07T12:00:51.563Z,0.70
2018-12-07T12:03:20.066Z,0.70
2018-12-07T12:05:48.123Z,0.60
2018-12-07T12:08:16.167Z,0.70
2018-12-07T12:10:44.786Z,0.80
2018-12-07T12:13:14.025Z,0.78
2018-12-07T12:15:42.248Z,1.17
2018-12-07T12:18:10.474Z,0.90
2018-12-07T12:20:38.725Z,0.70
2018-12-07T12:23:06.941Z,0.80
2018-12-07T12:25:35.859Z,0.60
2018-12-07T12:28:04.128Z,0.70
2018-12-07T12:30:35.316Z,0.80
2018-12-07T12:33:03.421Z,0.70
2018-12-07T12:35:31.519Z,0.65
2018-12-07T12:38:00.244Z,0.80
2018-12-07T12:40:28.282Z,1.07
2018-12-07T12:42:56.452Z,0.70
2018-12-07T12:45:25.045Z,0.68
2018-12-07T12:47:53.083Z,0.80
2018-12-07T12:50:41.279Z,0.90
2018-12-07T12:53:09.486Z,0.60
2018-12-07T12:55:39.954Z,0.80
2018-12-07T12:58:08.316Z,0.88
2018-12-07T13:00:36.479Z,0.70
2018-12-07T13:03:04.783Z,0.70
2018-12-07T13:05:33.412Z,0.80
2018-12-07T13:08:01.752Z,0.90
2018-12-07T13:10:29.860Z,0.80
2018-12-07T13:12:58.188Z,0.60
2018-12-07T13:15:26.509Z,0.70
2018-12-07T13:17:54.938Z,0.70
2018-12-07T13:20:23.088Z,0.93
2018-12-07T13:22:51.282Z,0.90
2018-12-07T13:25:19.345Z,1.05
2018-12-07T13:27:47.422Z,1.00
2018-12-07T13:30:15.572Z,0.70
2018-12-07T13:32:43.651Z,0.80
2018-12-07T13:35:11.930Z,0.70
2018-12-07T13:37:40.035Z,0.60
2018-12-07T13:40:08.342Z,0.70
2018-12-07T13:42:36.718Z,0.60
2018-12-07T13:45:06.263Z,0.70
2018-12-07T13:47:34.740Z,0.60
2018-12-07T13:50:09.998Z,0.70
2018-12-07T13:52:38.610Z,0.60
2018-12-07T13:55:07.063Z,0.57
2018-12-07T13:57:35.425Z,0.80
2018-12-07T14:00:04.304Z,0.65
2018-12-07T14:02:32.555Z,0.70
2018-12-07T14:05:01.027Z,0.68
2018-12-07T14:07:32.963Z,0.70
2018-12-07T14:10:01.043Z,0.60
2018-12-07T14:12:30.832Z,0.72
2018-12-07T14:14:59.979Z,0.70
2018-12-07T14:17:29.805Z,0.80
2018-12-07T14:19:59.359Z,0.70
2018-12-07T14:22:27.853Z,0.70
2018-12-07T14:24:57.531Z,0.60
2018-12-07T14:27:26.566Z,0.70
2018-12-07T14:29:58.233Z,0.70
2018-12-07T14:32:27.105Z,0.70
2018-12-07T14:34:56.944Z,0.70
2018-12-07T14:37:26.318Z,0.72
2018-12-07T14:39:54.647Z,0.80
2018-12-07T14:42:23.602Z,0.70
2018-12-07T14:44:53.823Z,0.80
2018-12-07T14:47:22.068Z,0.78
2018-12-07T14:49:52.164Z,0.80
2018-12-07T14:52:21.772Z,0.90
2018-12-07T14:54:51.604Z,0.80
2018-12-07T14:57:20.380Z,0.70
2018-12-07T14:59:49.691Z,0.70
2018-12-07T15:02:19.542Z,0.70
2018-12-07T15:04:49.178Z,0.90
2018-12-07T15:07:17.936Z,0.80
2018-12-07T15:09:46.694Z,0.90
2018-12-07T15:12:15.488Z,0.80
2018-12-07T15:14:45.416Z,0.80
2018-12-07T15:17:14.285Z,0.90
2018-12-07T15:19:42.501Z,0.80
2018-12-07T15:22:10.892Z,0.90
2018-12-07T15:24:39.529Z,1.05
2018-12-07T15:27:07.698Z,0.80
2018-12-07T15:29:36.182Z,1.00
2018-12-07T15:32:04.582Z,0.70
2018-12-07T15:34:32.922Z,1.00
2018-12-07T15:37:01.176Z,0.95
2018-12-07T15:39:29.545Z,0.90
2018-12-07T15:41:57.848Z,1.50
2018-12-07T15:44:26.231Z,0.98
2018-12-07T15:46:54.788Z,1.20
2018-12-07T15:49:28.079Z,1.30
2018-12-07T15:51:56.326Z,1.00
2018-12-07T15:54:24.856Z,0.80
2018-12-07T15:56:53.214Z,0.72
2018-12-07T15:59:21.418Z,1.00
2018-12-07T16:01:50.015Z,0.80
2018-12-07T16:04:18.302Z,0.90
2018-12-07T16:06:47.278Z,0.83
2018-12-07T16:09:16.338Z,0.90
2018-12-07T16:11:44.444Z,0.90
2018-12-07T16:14:13.008Z,0.80
2018-12-07T16:16:41.122Z,1.00
2018-12-07T16:19:09.447Z,0.93
2018-12-07T16:21:39.357Z,0.90
2018-12-07T16:24:09.882Z,0.85
2018-12-07T16:26:38.174Z,0.90
2018-12-07T16:29:06.510Z,1.00
2018-12-07T16:31:35.785Z,1.00
2018-12-07T16:34:04.184Z,1.20
2018-12-07T16:36:32.485Z,0.90
2018-12-07T16:39:01.557Z,1.00
2018-12-07T16:41:29.554Z,1.40
2018-12-07T16:43:57.612Z,1.17
2018-12-07T16:46:25.862Z,1.40
2018-12-07T16:48:54.391Z,1.00
2018-12-07T16:51:22.890Z,1.03
2018-12-07T16:53:51.298Z,1.50
2018-12-07T16:56:19.511Z,1.10
2018-12-07T16:58:49.062Z,1.20
2018-12-07T17:01:17.763Z,1.30
2018-12-07T17:03:46.819Z,1.30
2018-12-07T17:06:16.084Z,1.30
2018-12-07T17:08:46.991Z,1.32
2018-12-07T17:11:17.863Z,1.45
2018-12-07T17:13:46.859Z,1.57
2018-12-07T17:16:15.937Z,1.70
2018-12-07T17:18:44.132Z,1.30
2018-12-07T17:21:12.488Z,1.55
2018-12-07T17:23:40.821Z,1.32
2018-12-07T17:26:09.019Z,1.70
2018-12-07T17:28:37.452Z,1.52
2018-12-07T17:31:06.191Z,1.50
2018-12-07T17:33:36.636Z,1.82
2018-12-07T17:36:06.674Z,1.80
2018-12-07T17:38:35.049Z,1.80
2018-12-07T17:41:03.225Z,2.10
2018-12-07T17:43:31.641Z,2.20
2018-12-07T17:45:59.871Z,2.27
2018-12-07T17:48:28.062Z,2.42
2018-12-07T17:50:56.281Z,2.33
2018-12-07T17:53:25.301Z,2.25
2018-12-07T17:55:53.537Z,2.40
2018-12-07T17:58:21.787Z,2.47
2018-12-07T18:00:50.165Z,2.40
2018-12-07T18:03:19.059Z,2.70
2018-12-07T18:05:47.348Z,3.00
2018-12-07T18:08:15.663Z,3.17
2018-12-07T18:10:43.901Z,2.85
2018-12-07T18:13:12.172Z,3.52
2018-12-07T18:15:40.656Z,3.22
2018-12-07T18:18:08.923Z,3.33
2018-12-07T18:20:37.397Z,3.40
2018-12-07T18:23:05.562Z,3.00
2018-12-07T18:25:34.918Z,3.60
2018-12-07T18:28:03.268Z,3.20
2018-12-07T18:30:31.577Z,3.20
2018-12-07T18:33:00.079Z,3.40
2018-12-07T18:35:29.093Z,3.05
2018-12-07T18:37:57.738Z,3.10
2018-12-07T18:40:26.363Z,3.60
2018-12-07T18:42:54.880Z,3.22
2018-12-07T18:45:23.230Z,3.37
2018-12-07T18:47:51.620Z,3.40
2018-12-07T18:50:20.123Z,3.37
2018-12-07T18:52:50.403Z,3.60
2018-12-07T18:55:19.627Z,3.57
2018-12-07T18:57:48.001Z,3.50
2018-12-07T19:00:16.340Z,3.33
2018-12-07T19:02:44.542Z,3.98
2018-12-07T19:05:12.900Z,3.65
2018-12-07T19:07:41.418Z,3.90
2018-12-07T19:10:09.519Z,3.90
2018-12-07T19:12:38.213Z,4.40
2018-12-07T19:15:07.852Z,3.90
2018-12-07T19:17:36.739Z,4.15
2018-12-07T19:20:06.836Z,4.22
2018-12-07T19:22:35.247Z,4.90
2018-12-07T19:25:04.941Z,4.43
2018-12-07T19:27:33.534Z,4.50
2018-12-07T19:30:01.707Z,4.67
2018-12-07T19:32:29.998Z,5.22
2018-12-07T19:34:58.092Z,5.10
2018-12-07T19:37:26.311Z,5.42
2018-12-07T19:39:55.663Z,5.75
2018-12-07T19:42:25.608Z,5.60
2018-12-07T19:44:54.697Z,5.67
2018-12-07T19:47:23.754Z,6.50
2018-12-07T19:49:53.093Z,6.27
2018-12-07T19:52:22.637Z,7.00
2018-12-07T19:54:51.354Z,6.60
2018-12-07T19:57:20.528Z,6.97
2018-12-07T19:59:50.713Z,7.42
2018-12-07T20:02:19.811Z,6.72
2018-12-07T20:04:49.690Z,6.95
2018-12-07T20:07:18.339Z,6.20
2018-12-07T20:09:46.510Z,6.62
2018-12-07T20:12:15.187Z,6.30
2018-12-07T20:14:44.217Z,6.65
2018-12-07T20:17:13.012Z,6.40
2018-12-07T20:19:41.147Z,6.33
2018-12-07T20:22:09.710Z,5.97
2018-12-07T20:24:38.056Z,6.40
2018-12-07T20:27:06.152Z,6.70
2018-12-07T20:29:36.356Z,6.47
2018-12-07T20:32:05.024Z,6.05
2018-12-07T20:34:33.939Z,5.80
2018-12-07T20:37:02.054Z,5.90
2018-12-07T20:39:31.925Z,5.83
2018-12-07T20:42:00.605Z,5.30
2018-12-07T20:44:28.948Z,5.50
2018-12-07T20:46:58.337Z,4.85
2018-12-07T20:49:26.551Z,5.35
2018-12-07T20:51:54.909Z,5.65
2018-12-07T20:54:23.491Z,4.80
2018-12-07T20:56:51.714Z,4.75
2018-12-07T20:59:19.872Z,4.70
2018-12-07T21:01:51.747Z,3.98
2018-12-07T21:04:29.300Z,3.42
2018-12-07T21:07:21.033Z,3.30
2018-12-07T21:10:05.514Z,3.30
2018-12-07T21:12:57.719Z,3.30
2018-12-07T21:15:25.915Z,2.80
2018-12-07T21:17:54.306Z,3.12
2018-12-07T21:20:24.702Z,3.02
2018-12-07T21:22:54.383Z,2.60
2018-12-07T21:25:22.795Z,2.30
2018-12-07T21:27:51.130Z,2.65
2018-12-07T21:31:01.865Z,2.30
2018-12-07T21:34:39.938Z,2.10
2018-12-07T21:37:08.498Z,1.82
2018-12-07T21:39:41.518Z,1.90
2018-12-07T21:42:09.706Z,1.40
2018-12-07T21:44:38.187Z,1.40
2018-12-07T21:47:06.578Z,1.45
2018-12-07T21:49:46.208Z,1.30
2018-12-07T21:52:27.010Z,1.00
2018-12-07T21:54:55.614Z,1.30
2018-12-07T21:57:25.836Z,1.10
2018-12-07T21:59:54.889Z,1.10
2018-12-07T22:02:23.284Z,0.90
2018-12-07T22:04:51.712Z,1.00
2018-12-07T22:07:19.975Z,1.00
2018-12-07T22:09:48.440Z,1.07
2018-12-07T22:12:16.791Z,1.00
2018-12-07T22:14:45.557Z,1.00
2018-12-07T22:17:13.823Z,0.90
2018-12-07T22:19:42.032Z,0.90
2018-12-07T22:22:10.569Z,0.78
2018-12-07T22:24:39.163Z,0.70
2018-12-07T22:27:07.238Z,1.00
2018-12-07T22:29:35.612Z,0.70
2018-12-07T22:32:04.419Z,0.90
2018-12-07T22:34:32.642Z,0.70
2018-12-07T22:37:01.826Z,0.60
2018-12-07T22:39:30.667Z,0.60
2018-12-07T22:41:59.085Z,0.60
2018-12-07T22:44:27.363Z,0.60
2018-12-07T22:46:56.014Z,0.70
2018-12-07T22:49:24.174Z,0.70
2018-12-07T22:51:52.368Z,0.70
2018-12-07T22:54:20.410Z,0.70
2018-12-07T22:56:48.622Z,0.60
2018-12-07T22:59:16.861Z,0.60
2018-12-07T23:01:44.970Z,0.70
2018-12-07T23:04:13.128Z,0.80
2018-12-07T23:06:41.402Z,0.60
2018-12-07T23:09:09.566Z,0.50
2018-12-07T23:11:37.693Z,0.60
2018-12-07T23:14:05.888Z,0.50
2018-12-07T23:16:34.011Z,0.70
2018-12-07T23:19:02.255Z,0.60
2018-12-07T23:21:30.553Z,0.60
2018-12-07T23:23:58.619Z,0.53
2018-12-07T23:26:26.687Z,0.50
2018-12-07T23:28:54.882Z,0.50
2018-12-07T23:31:23.002Z,0.60
2018-12-07T23:33:51.580Z,0.70
2018-12-07T23:36:20.385Z,0.50
2018-12-07T23:38:48.496Z,0.50
2018-12-07T23:41:16.540Z,0.60
2018-12-07T23:43:44.613Z,0.70
2018-12-07T23:46:12.663Z,0.70
2018-12-07T23:48:40.963Z,0.60
2018-12-07T23:51:09.021Z,1.00
2018-12-07T23:53:37.210Z,0.78
2018-12-07T23:56:05.441Z,0.80
2018-12-07T23:58:33.673Z,0.80
